createdAt,value
2018-10-19T00:00:06.796Z,30.87
2018-10-19T00:02:36.435Z,31.27
2018-10-19T00:05:06.346Z,30.60
2018-10-19T00:07:35.749Z,29.57
2018-10-19T00:10:05.843Z,32.20
2018-10-19T00:12:35.588Z,30.43
2018-10-19T00:15:06.204Z,31.30
2018-10-19T00:17:35.717Z,29.50
2018-10-19T00:20:06.167Z,30.60
2018-10-19T00:22:35.833Z,31.33
2018-10-19T00:25:06.348Z,29.47
2018-10-19T00:27:35.825Z,31.60
2018-10-19T00:30:06.133Z,32.77
2018-10-19T00:32:35.865Z,33.50
2018-10-19T00:35:06.235Z,31.33
2018-10-19T00:37:36.055Z,30.40
2018-10-19T00:40:05.750Z,30.27
2018-10-19T00:42:35.701Z,30.50
2018-10-19T00:45:06.282Z,32.23
2018-10-19T00:47:35.833Z,32.03
2018-10-19T00:50:05.481Z,32.00
2018-10-19T00:52:35.089Z,33.40
2018-10-19T00:55:04.684Z,35.10
2018-10-19T00:57:34.398Z,32.53
2018-10-19T01:00:04.114Z,32.43
2018-10-19T01:02:33.953Z,33.47
2018-10-19T01:05:03.649Z,33.30
2018-10-19T01:07:33.215Z,32.53
2018-10-19T01:10:02.735Z,30.40
2018-10-19T01:12:32.501Z,31.97
2018-10-19T01:15:02.324Z,32.07
2018-10-19T01:17:31.877Z,31.67
2018-10-19T01:20:01.559Z,31.30
2018-10-19T01:22:31.007Z,32.50
2018-10-19T01:25:00.827Z,33.30
2018-10-19T01:27:30.487Z,31.73
2018-10-19T01:30:00.153Z,32.37
2018-10-19T01:32:29.912Z,30.50
2018-10-19T01:34:59.508Z,30.37
2018-10-19T01:37:29.223Z,30.33
2018-10-19T01:39:58.712Z,30.70
2018-10-19T01:42:28.442Z,31.33
2018-10-19T01:44:57.949Z,32.10
2018-10-19T01:47:27.385Z,31.43
2018-10-19T01:49:57.095Z,31.80
2018-10-19T01:52:26.855Z,32.50
2018-10-19T01:54:56.460Z,32.10
2018-10-19T01:57:25.983Z,33.17
2018-10-19T01:59:55.696Z,33.47
2018-10-19T02:02:25.275Z,34.37
2018-10-19T02:04:54.933Z,34.43
2018-10-19T02:07:24.655Z,33.70
2018-10-19T02:09:54.188Z,35.40
2018-10-19T02:12:23.664Z,36.13
2018-10-19T02:14:53.338Z,36.57
2018-10-19T02:17:22.916Z,36.07
2018-10-19T02:19:52.767Z,35.60
2018-10-19T02:22:22.354Z,34.33
2018-10-19T02:24:51.988Z,35.57
2018-10-19T02:27:21.574Z,34.87
2018-10-19T02:29:51.153Z,33.13
2018-10-19T02:32:20.890Z,33.37
2018-10-19T02:34:50.385Z,35.07
2018-10-19T02:37:20.109Z,33.20
2018-10-19T02:39:49.872Z,32.97
2018-10-19T02:42:19.391Z,34.47
2018-10-19T02:44:49.063Z,32.10
2018-10-19T02:47:18.695Z,33.30
2018-10-19T02:49:48.617Z,35.43
2018-10-19T02:52:18.188Z,35.67
2018-10-19T02:54:47.887Z,33.30
2018-10-19T02:57:17.539Z,34.80
2018-10-19T02:59:47.405Z,34.13
2018-10-19T03:02:16.978Z,34.33
2018-10-19T03:04:46.730Z,35.37
2018-10-19T03:07:16.409Z,35.80
2018-10-19T03:09:45.884Z,35.40
2018-10-19T03:12:15.495Z,35.67
2018-10-19T03:14:45.072Z,36.00
2018-10-19T03:17:14.900Z,36.40
2018-10-19T03:19:44.697Z,35.67
2018-10-19T03:22:14.308Z,35.23
2018-10-19T03:24:44.029Z,36.37
2018-10-19T03:27:13.807Z,34.70
2018-10-19T03:29:43.363Z,35.30
2018-10-19T03:32:13.003Z,36.17
2018-10-19T03:34:42.689Z,35.20
2018-10-19T03:37:12.331Z,34.67
2018-10-19T03:39:42.139Z,36.77
2018-10-19T03:42:11.568Z,36.53
2018-10-19T03:44:41.398Z,38.17
2018-10-19T03:47:11.134Z,36.53
2018-10-19T03:49:40.795Z,38.50
2018-10-19T03:52:10.428Z,39.57
2018-10-19T03:54:39.858Z,37.73
2018-10-19T03:57:09.580Z,38.77
2018-10-19T03:59:38.987Z,37.40
2018-10-19T04:02:08.389Z,36.10
2018-10-19T04:04:38.044Z,36.70
2018-10-19T04:07:07.713Z,35.40
2018-10-19T04:09:37.158Z,34.57
2018-10-19T04:12:06.697Z,36.37
2018-10-19T04:14:36.276Z,34.33
2018-10-19T04:17:06.128Z,32.17
2018-10-19T04:19:35.689Z,36.38
2018-10-19T04:22:05.399Z,34.43
2018-10-19T04:24:35.083Z,36.47
2018-10-19T04:27:04.660Z,36.60
2018-10-19T04:29:34.149Z,35.70
2018-10-19T04:32:10.273Z,38.73
2018-10-19T04:34:39.911Z,37.80
2018-10-19T04:37:09.540Z,38.57
2018-10-19T04:39:39.123Z,38.47
2018-10-19T04:42:08.776Z,38.97
2018-10-19T04:44:38.447Z,39.93
2018-10-19T04:47:07.946Z,40.23
2018-10-19T04:49:37.601Z,40.60
2018-10-19T04:52:09.625Z,40.23
2018-10-19T04:54:39.235Z,42.30
2018-10-19T04:57:08.887Z,42.80
2018-10-19T04:59:38.506Z,39.93
2018-10-19T05:02:08.226Z,39.40
2018-10-19T05:04:37.962Z,40.53
2018-10-19T05:07:07.411Z,39.67
2018-10-19T05:09:36.962Z,41.37
2018-10-19T05:12:06.598Z,39.50
2018-10-19T05:14:36.669Z,38.00
2018-10-19T05:17:06.502Z,37.47
2018-10-19T05:19:36.371Z,36.53
2018-10-19T05:22:06.071Z,37.63
2018-10-19T05:24:35.789Z,36.67
2018-10-19T05:27:05.601Z,37.30
2018-10-19T05:29:35.071Z,37.60
2018-10-19T05:32:04.715Z,37.53
2018-10-19T05:34:34.462Z,34.77
2018-10-19T05:37:04.257Z,33.13
2018-10-19T05:39:33.932Z,31.50
2018-10-19T05:42:03.601Z,34.60
2018-10-19T05:44:42.386Z,32.20
2018-10-19T05:47:13.023Z,30.03
2018-10-19T05:49:42.695Z,30.17
2018-10-19T05:52:12.369Z,32.40
2018-10-19T05:54:42.255Z,36.47
2018-10-19T05:57:12.193Z,37.77
2018-10-19T05:59:41.745Z,36.83
2018-10-19T06:02:11.392Z,36.27
2018-10-19T06:04:41.032Z,36.73
2018-10-19T06:07:10.686Z,41.10
2018-10-19T06:09:40.339Z,41.87
2018-10-19T06:12:10.117Z,38.13
2018-10-19T06:14:39.879Z,40.30
2018-10-19T06:17:09.615Z,40.10
2018-10-19T06:19:39.218Z,38.60
2018-10-19T06:22:08.943Z,40.90
2018-10-19T06:24:38.655Z,38.00
2018-10-19T06:27:08.620Z,37.20
2018-10-19T06:29:38.290Z,39.03
2018-10-19T06:32:07.977Z,38.77
2018-10-19T06:34:37.694Z,36.97
2018-10-19T06:37:07.395Z,39.83
2018-10-19T06:39:37.022Z,41.63
2018-10-19T06:42:06.633Z,44.90
2018-10-19T06:44:36.351Z,43.30
2018-10-19T06:47:06.359Z,42.00
2018-10-19T06:49:35.763Z,42.50
2018-10-19T06:52:05.555Z,39.83
2018-10-19T06:54:35.001Z,38.80
2018-10-19T06:57:04.947Z,36.27
2018-10-19T06:59:34.772Z,37.83
2018-10-19T07:02:04.375Z,37.20
2018-10-19T07:04:34.195Z,37.03
2018-10-19T07:07:03.867Z,38.23
2018-10-19T07:09:33.338Z,36.17
2018-10-19T07:12:03.340Z,33.07
2018-10-19T07:14:32.950Z,32.23
2018-10-19T07:17:02.652Z,33.30
2018-10-19T07:19:32.341Z,35.60
2018-10-19T07:22:01.855Z,36.37
2018-10-19T07:24:31.466Z,40.27
2018-10-19T07:27:01.219Z,39.87
2018-10-19T07:29:30.912Z,43.13
2018-10-19T07:32:00.631Z,43.33
2018-10-19T07:34:30.365Z,43.53
2018-10-19T07:36:59.973Z,46.37
2018-10-19T07:39:29.672Z,45.17
2018-10-19T07:41:59.308Z,44.37
2018-10-19T07:44:28.979Z,44.47
2018-10-19T07:46:58.448Z,45.97
2018-10-19T07:49:28.163Z,45.03
2018-10-19T07:51:57.578Z,46.23
2018-10-19T07:54:27.136Z,43.30
2018-10-19T07:56:56.821Z,42.57
2018-10-19T07:59:26.603Z,44.37
2018-10-19T08:01:56.349Z,43.77
2018-10-19T08:04:25.815Z,44.37
2018-10-19T08:06:55.792Z,45.07
2018-10-19T08:09:25.379Z,42.20
2018-10-19T08:11:55.093Z,45.80
2018-10-19T08:14:24.837Z,43.70
2018-10-19T08:16:54.446Z,44.80
2018-10-19T08:19:24.215Z,44.17
2018-10-19T08:21:53.649Z,43.67
2018-10-19T08:24:23.385Z,45.27
2018-10-19T08:26:53.063Z,43.47
2018-10-19T08:29:22.635Z,44.87
2018-10-19T08:31:52.060Z,46.10
2018-10-19T08:34:21.673Z,44.67
2018-10-19T08:36:51.341Z,43.90
2018-10-19T08:39:21.076Z,45.03
2018-10-19T08:41:50.942Z,46.20
2018-10-19T08:44:21.324Z,47.00
2018-10-19T08:46:51.065Z,46.33
2018-10-19T08:49:20.709Z,47.93
2018-10-19T08:51:50.429Z,47.63
2018-10-19T08:54:20.124Z,50.83
2018-10-19T08:56:49.568Z,47.80
2018-10-19T08:59:19.268Z,49.53
2018-10-19T09:01:48.953Z,51.60
2018-10-19T09:04:19.631Z,49.37
2018-10-19T09:06:49.310Z,51.50
2018-10-19T09:09:19.000Z,51.30
2018-10-19T09:11:48.770Z,52.30
2018-10-19T09:14:29.707Z,53.97
2018-10-19T09:16:59.302Z,53.67
2018-10-19T09:19:28.757Z,56.07
2018-10-19T09:21:58.362Z,56.00
2018-10-19T09:24:27.785Z,52.77
2018-10-19T09:26:57.513Z,52.37
2018-10-19T09:29:27.269Z,54.07
2018-10-19T09:31:56.995Z,51.70
2018-10-19T09:34:26.636Z,53.13
2018-10-19T09:36:56.172Z,55.43
2018-10-19T09:39:25.675Z,53.83
2018-10-19T09:41:55.595Z,53.40
2018-10-19T09:44:25.364Z,54.77
2018-10-19T09:46:55.061Z,52.87
2018-10-19T09:49:24.566Z,54.17
2018-10-19T09:51:54.289Z,54.20
2018-10-19T09:54:23.771Z,54.93
2018-10-19T09:56:53.266Z,53.40
2018-10-19T09:59:22.975Z,55.87
2018-10-19T10:01:52.774Z,54.17
2018-10-19T10:04:22.592Z,58.53
2018-10-19T10:06:52.157Z,56.17
2018-10-19T10:09:22.036Z,54.67
2018-10-19T10:11:51.497Z,53.47
2018-10-19T10:14:21.048Z,56.80
2018-10-19T10:16:50.733Z,53.67
2018-10-19T10:19:20.476Z,58.53
2018-10-19T10:21:50.083Z,58.87
2018-10-19T10:24:19.645Z,55.30
2018-10-19T10:26:49.295Z,60.10
2018-10-19T10:29:19.096Z,58.50
2018-10-19T10:31:48.739Z,59.03
2018-10-19T10:34:18.451Z,57.70
2018-10-19T10:36:48.137Z,64.32
2018-10-19T10:39:17.981Z,61.07
2018-10-19T10:41:47.557Z,60.10
2018-10-19T10:44:17.185Z,58.07
2018-10-19T10:46:46.925Z,57.73
2018-10-19T10:49:16.693Z,58.07
2018-10-19T10:51:46.103Z,56.57
2018-10-19T10:54:15.606Z,58.00
2018-10-19T10:56:45.275Z,58.50
2018-10-19T10:59:14.922Z,56.67
2018-10-19T11:01:44.622Z,57.23
2018-10-19T11:04:14.225Z,67.50
2018-10-19T11:06:43.943Z,62.50
2018-10-19T11:09:13.757Z,59.63
2018-10-19T11:11:43.296Z,63.87
2018-10-19T11:14:13.008Z,60.93
2018-10-19T11:16:42.685Z,59.57
2018-10-19T11:19:12.919Z,62.13
2018-10-19T11:21:42.631Z,62.73
2018-10-19T11:24:12.194Z,62.53
2018-10-19T11:26:41.929Z,59.67
2018-10-19T11:29:11.756Z,60.90
2018-10-19T11:31:41.405Z,61.90
2018-10-19T11:34:11.047Z,62.30
2018-10-19T11:36:44.968Z,66.10
2018-10-19T11:39:14.803Z,62.47
2018-10-19T11:41:44.336Z,63.40
2018-10-19T11:44:27.895Z,62.20
2018-10-19T11:47:00.526Z,60.30
2018-10-19T11:49:30.339Z,60.70
2018-10-19T11:51:59.894Z,61.50
2018-10-19T11:54:36.068Z,60.93
2018-10-19T11:57:06.454Z,62.43
2018-10-19T11:59:36.134Z,62.47
2018-10-19T12:02:05.685Z,61.20
2018-10-19T12:04:35.966Z,59.83
2018-10-19T12:07:06.760Z,58.17
2018-10-19T12:09:36.633Z,60.83
2018-10-19T12:12:06.765Z,57.63
2018-10-19T12:14:36.376Z,61.27
2018-10-19T12:17:06.608Z,57.97
2018-10-19T12:19:36.545Z,62.00
2018-10-19T12:22:06.775Z,62.37
2018-10-19T12:24:36.449Z,59.93
2018-10-19T12:27:06.338Z,58.43
2018-10-19T12:29:35.920Z,58.77
2018-10-19T12:32:06.437Z,57.80
2018-10-19T12:34:35.985Z,58.07
2018-10-19T12:37:06.165Z,61.03
2018-10-19T12:39:35.860Z,61.07
2018-10-19T12:42:05.670Z,59.17
2018-10-19T12:44:35.517Z,57.77
2018-10-19T12:47:16.202Z,60.10
2018-10-19T12:49:46.175Z,60.03
2018-10-19T12:52:16.119Z,60.20
2018-10-19T12:54:45.826Z,59.17
2018-10-19T12:57:16.105Z,61.80
2018-10-19T12:59:46.083Z,56.00
2018-10-19T13:02:15.663Z,59.10
2018-10-19T13:04:45.812Z,57.33
2018-10-19T13:07:16.236Z,58.10
2018-10-19T13:09:45.764Z,55.53
2018-10-19T13:12:15.771Z,59.03
2018-10-19T13:14:46.025Z,57.03
2018-10-19T13:17:16.991Z,57.40
2018-10-19T13:19:47.200Z,57.70
2018-10-19T13:22:17.172Z,57.83
2018-10-19T13:24:47.331Z,58.60
2018-10-19T13:27:17.049Z,60.10
2018-10-19T13:29:47.721Z,58.20
2018-10-19T13:32:17.825Z,60.30
2018-10-19T13:34:47.795Z,58.73
2018-10-19T13:37:18.913Z,62.63
2018-10-19T13:39:48.731Z,60.93
2018-10-19T13:42:18.285Z,59.53
2018-10-19T13:44:47.845Z,58.60
2018-10-19T13:47:17.433Z,58.10
2018-10-19T13:49:47.039Z,56.07
2018-10-19T13:52:16.961Z,57.83
2018-10-19T13:54:46.657Z,56.80
2018-10-19T13:57:16.162Z,55.43
2018-10-19T13:59:45.740Z,52.23
2018-10-19T14:02:15.320Z,52.33
2018-10-19T14:04:44.875Z,49.80
2018-10-19T14:07:14.508Z,53.50
2018-10-19T14:09:44.244Z,50.67
2018-10-19T14:12:13.879Z,52.97
2018-10-19T14:14:43.444Z,52.53
2018-10-19T14:17:13.003Z,52.40
2018-10-19T14:19:42.590Z,51.43
2018-10-19T14:22:12.047Z,51.47
2018-10-19T14:24:41.698Z,48.60
2018-10-19T14:27:11.652Z,47.83
2018-10-19T14:29:41.257Z,47.77
2018-10-19T14:32:10.737Z,46.90
2018-10-19T14:34:40.300Z,48.63
2018-10-19T14:37:09.985Z,45.77
2018-10-19T14:39:39.517Z,50.17
2018-10-19T14:42:09.265Z,50.97
2018-10-19T14:44:39.035Z,50.17
2018-10-19T14:47:08.786Z,50.97
2018-10-19T14:49:38.278Z,53.60
2018-10-19T14:52:07.762Z,53.50
2018-10-19T14:54:37.247Z,51.47
2018-10-19T14:57:07.002Z,51.73
2018-10-19T14:59:36.436Z,50.37
2018-10-19T15:02:06.141Z,49.63
2018-10-19T15:04:36.258Z,51.37
2018-10-19T15:07:06.154Z,52.47
2018-10-19T15:09:35.938Z,50.20
2018-10-19T15:12:06.071Z,51.27
2018-10-19T15:14:35.773Z,50.80
2018-10-19T15:17:06.044Z,52.83
2018-10-19T15:19:35.925Z,49.60
2018-10-19T15:22:05.697Z,50.47
2018-10-19T15:24:35.422Z,47.33
2018-10-19T15:27:05.167Z,48.83
2018-10-19T15:29:35.244Z,49.03
2018-10-19T15:32:04.969Z,48.47
2018-10-19T15:34:34.747Z,48.20
2018-10-19T15:37:04.571Z,47.47
2018-10-19T15:40:37.612Z,50.00
2018-10-19T15:43:07.362Z,47.13
2018-10-19T15:45:36.997Z,47.20
2018-10-19T15:48:06.827Z,46.30
2018-10-19T15:50:36.302Z,48.87
2018-10-19T15:53:06.048Z,48.00
2018-10-19T15:55:36.270Z,48.37
2018-10-19T15:58:06.261Z,46.97
2018-10-19T16:00:35.855Z,49.50
2018-10-19T16:03:05.743Z,45.20
2018-10-19T16:05:35.298Z,45.50
2018-10-19T16:08:05.251Z,45.30
2018-10-19T16:10:35.291Z,45.40
2018-10-19T16:13:05.235Z,46.10
2018-10-19T16:15:34.787Z,46.67
2018-10-19T16:18:04.774Z,45.27
2018-10-19T16:20:35.103Z,45.17
2018-10-19T16:23:05.046Z,46.93
2018-10-19T16:25:34.755Z,46.50
2018-10-19T16:28:04.476Z,46.23
2018-10-19T16:30:34.367Z,45.33
2018-10-19T16:33:03.840Z,45.50
2018-10-19T16:35:33.533Z,46.23
2018-10-19T16:38:03.227Z,46.60
2018-10-19T16:40:32.951Z,46.73
2018-10-19T16:43:02.599Z,45.57
2018-10-19T16:45:32.149Z,48.03
2018-10-19T16:48:01.913Z,45.43
2018-10-19T16:50:31.478Z,45.00
2018-10-19T16:53:01.121Z,45.37
2018-10-19T16:55:30.717Z,48.30
2018-10-19T16:58:00.477Z,47.57
2018-10-19T17:00:30.097Z,44.93
2018-10-19T17:02:59.913Z,46.00
2018-10-19T17:05:29.508Z,45.90
2018-10-19T17:07:59.238Z,46.47
2018-10-19T17:10:29.121Z,44.93
2018-10-19T17:12:58.944Z,44.10
2018-10-19T17:15:28.568Z,44.30
2018-10-19T17:17:58.648Z,44.13
2018-10-19T17:20:28.843Z,47.10
2018-10-19T17:22:58.732Z,45.17
2018-10-19T17:25:28.394Z,46.33
2018-10-19T17:27:58.162Z,46.93
2018-10-19T17:30:27.959Z,43.67
2018-10-19T17:32:57.608Z,44.33
2018-10-19T17:35:27.546Z,45.03
2018-10-19T17:37:57.475Z,46.07
2018-10-19T17:40:27.224Z,45.00
2018-10-19T17:42:56.952Z,44.13
2018-10-19T17:45:26.398Z,45.57
2018-10-19T17:47:56.306Z,46.63
2018-10-19T17:50:25.905Z,46.03
2018-10-19T17:52:55.559Z,44.50
2018-10-19T17:55:25.139Z,43.80
2018-10-19T17:57:54.794Z,44.33
2018-10-19T18:00:24.311Z,46.80
2018-10-19T18:02:53.928Z,47.73
2018-10-19T18:05:23.555Z,45.10
2018-10-19T18:07:53.336Z,43.73
2018-10-19T18:10:23.146Z,45.20
2018-10-19T18:12:52.783Z,44.13
2018-10-19T18:15:22.547Z,43.27
2018-10-19T18:17:52.349Z,43.83
2018-10-19T18:20:21.994Z,45.53
2018-10-19T18:22:51.744Z,43.63
2018-10-19T18:25:21.356Z,44.23
2018-10-19T18:27:50.993Z,42.63
2018-10-19T18:30:20.477Z,45.65
2018-10-19T18:32:50.201Z,44.40
2018-10-19T18:35:19.885Z,42.20
2018-10-19T18:37:49.495Z,44.07
2018-10-19T18:40:19.108Z,45.70
2018-10-19T18:42:48.853Z,48.33
2018-10-19T18:45:18.570Z,47.43
2018-10-19T18:47:48.170Z,49.90
2018-10-19T18:50:18.063Z,49.37
2018-10-19T18:52:47.593Z,49.03
2018-10-19T18:55:17.261Z,56.63
2018-10-19T18:57:46.995Z,59.40
2018-10-19T19:00:16.690Z,54.60
2018-10-19T19:02:46.368Z,49.30
2018-10-19T19:05:15.921Z,50.43
2018-10-19T19:07:45.551Z,51.90
2018-10-19T19:10:15.989Z,51.17
2018-10-19T19:12:45.597Z,50.87
2018-10-19T19:15:15.355Z,51.30
2018-10-19T19:17:45.167Z,48.93
2018-10-19T19:20:20.005Z,48.90
2018-10-19T19:22:49.670Z,47.47
2018-10-19T19:25:24.503Z,49.77
2018-10-19T19:27:54.051Z,49.90
2018-10-19T19:30:23.799Z,48.17
2018-10-19T19:32:58.581Z,50.27
2018-10-19T19:35:28.269Z,55.23
2018-10-19T19:37:57.915Z,54.63
2018-10-19T19:40:27.479Z,55.07
2018-10-19T19:42:58.518Z,53.60
2018-10-19T19:45:28.155Z,52.77
2018-10-19T19:48:03.123Z,51.37
2018-10-19T19:50:32.705Z,51.23
2018-10-19T19:53:02.261Z,49.80
2018-10-19T19:55:31.755Z,49.27
2018-10-19T19:58:01.503Z,50.10
2018-10-19T20:00:30.996Z,47.20
2018-10-19T20:03:00.505Z,50.27
2018-10-19T20:05:30.259Z,50.07
2018-10-19T20:08:00.407Z,50.30
2018-10-19T20:10:30.024Z,51.60
2018-10-19T20:13:00.078Z,49.80
2018-10-19T20:15:29.639Z,50.90
2018-10-19T20:17:59.341Z,50.50
2018-10-19T20:20:29.005Z,50.30
2018-10-19T20:22:58.552Z,48.60
2018-10-19T20:25:28.065Z,48.03
2018-10-19T20:27:57.694Z,50.30
2018-10-19T20:30:27.576Z,49.57
2018-10-19T20:32:57.140Z,49.40
2018-10-19T20:35:26.734Z,48.57
2018-10-19T20:37:56.394Z,48.03
2018-10-19T20:40:25.995Z,49.37
2018-10-19T20:42:55.634Z,51.10
2018-10-19T20:45:25.349Z,51.70
2018-10-19T20:47:55.078Z,50.97
2018-10-19T20:50:24.691Z,50.07
2018-10-19T20:52:54.298Z,50.87
2018-10-19T20:55:23.903Z,51.67
2018-10-19T20:57:53.437Z,52.03
2018-10-19T21:00:23.047Z,50.83
2018-10-19T21:02:52.808Z,51.77
2018-10-19T21:05:22.336Z,49.70
2018-10-19T21:07:51.922Z,50.13
2018-10-19T21:10:21.397Z,49.50
2018-10-19T21:12:50.843Z,50.20
2018-10-19T21:15:20.517Z,51.90
2018-10-19T21:17:50.197Z,51.40
2018-10-19T21:20:19.817Z,51.73
2018-10-19T21:22:49.366Z,51.07
2018-10-19T21:25:18.997Z,51.17
2018-10-19T21:27:48.755Z,51.37
2018-10-19T21:30:18.497Z,51.30
2018-10-19T21:32:48.260Z,48.93
2018-10-19T21:35:17.813Z,50.80
2018-10-19T21:37:47.263Z,51.27
2018-10-19T21:40:16.933Z,50.50
2018-10-19T21:42:46.503Z,51.67
2018-10-19T21:45:16.399Z,47.90
2018-10-19T21:47:45.920Z,50.33
2018-10-19T21:50:15.659Z,50.63
2018-10-19T21:52:45.222Z,48.27
2018-10-19T21:55:14.990Z,50.00
2018-10-19T21:57:44.643Z,48.23
2018-10-19T22:00:14.351Z,49.30
2018-10-19T22:02:44.037Z,49.83
2018-10-19T22:05:13.800Z,49.17
2018-10-19T22:07:43.590Z,48.27
2018-10-19T22:10:13.195Z,48.60
2018-10-19T22:12:42.987Z,48.23
2018-10-19T22:15:12.675Z,50.13
2018-10-19T22:17:42.149Z,47.50
2018-10-19T22:20:11.819Z,47.67
2018-10-19T22:22:41.262Z,49.30
2018-10-19T22:25:11.016Z,49.20
2018-10-19T22:27:40.353Z,48.80
2018-10-19T22:30:10.089Z,49.13
2018-10-19T22:32:39.775Z,46.90
2018-10-19T22:35:09.430Z,47.40
2018-10-19T22:37:38.905Z,48.47
2018-10-19T22:40:08.559Z,47.33
2018-10-19T22:42:38.225Z,46.23
2018-10-19T22:45:08.038Z,45.63
2018-10-19T22:47:37.439Z,46.00
2018-10-19T22:50:07.217Z,46.80
2018-10-19T22:52:36.826Z,46.80
2018-10-19T22:55:06.856Z,48.13
2018-10-19T22:57:36.325Z,48.37
2018-10-19T23:00:06.532Z,45.67
2018-10-19T23:02:36.304Z,47.33
2018-10-19T23:05:06.087Z,43.90
2018-10-19T23:07:35.891Z,46.07
2018-10-19T23:10:06.818Z,45.73
2018-10-19T23:12:36.781Z,46.10
2018-10-19T23:15:07.127Z,46.33
2018-10-19T23:17:36.700Z,46.03
2018-10-19T23:20:07.027Z,44.50
2018-10-19T23:22:36.550Z,45.10
2018-10-19T23:25:07.076Z,44.67
2018-10-19T23:27:36.571Z,46.00
2018-10-19T23:30:06.807Z,43.70
2018-10-19T23:32:36.469Z,42.73
2018-10-19T23:35:07.195Z,40.93
2018-10-19T23:37:36.606Z,43.07
2018-10-19T23:40:06.856Z,42.13
2018-10-19T23:42:36.270Z,43.53
2018-10-19T23:45:07.212Z,42.87
2018-10-19T23:47:36.989Z,43.27
2018-10-19T23:50:07.495Z,43.53
2018-10-19T23:52:37.204Z,44.00
2018-10-19T23:55:07.339Z,41.13
2018-10-19T23:57:37.009Z,41.13
